sensor_id;sensor_type;location;lat;lon;timestamp;pressure;altitude;pressure_sealevel;temperature;humidity
55022;BME280;68328;35.990;-86.756;2023-03-26T00:00:34;98551.72;;;23.46;29.97
55022;BME280;68328;35.990;-86.756;2023-03-26T00:02:59;98554.54;;;23.43;29.97
55022;BME280;68328;35.990;-86.756;2023-03-26T00:05:24;98556.78;;;23.40;28.64
55022;BME280;68328;35.990;-86.756;2023-03-26T00:07:48;98558.41;;;23.24;31.22
55022;BME280;68328;35.990;-86.756;2023-03-26T00:10:14;98563.37;;;23.52;31.48
55022;BME280;68328;35.990;-86.756;2023-03-26T00:12:40;98563.50;;;23.22;31.66
55022;BME280;68328;35.990;-86.756;2023-03-26T00:15:05;98565.96;;;23.03;30.67
55022;BME280;68328;35.990;-86.756;2023-03-26T00:17:30;98567.72;;;22.94;31.20
55022;BME280;68328;35.990;-86.756;2023-03-26T00:19:57;98574.12;;;22.44;30.12
55022;BME280;68328;35.990;-86.756;2023-03-26T00:22:22;98574.03;;;22.92;31.23
55022;BME280;68328;35.990;-86.756;2023-03-26T00:24:48;98577.15;;;22.54;32.69
55022;BME280;68328;35.990;-86.756;2023-03-26T00:27:11;98575.57;;;22.40;34.59
55022;BME280;68328;35.990;-86.756;2023-03-26T00:29:37;98576.36;;;22.58;33.05
55022;BME280;68328;35.990;-86.756;2023-03-26T00:32:02;98578.27;;;21.86;33.95
55022;BME280;68328;35.990;-86.756;2023-03-26T00:34:27;98578.16;;;21.97;33.04
55022;BME280;68328;35.990;-86.756;2023-03-26T00:36:52;98580.82;;;21.91;33.35
55022;BME280;68328;35.990;-86.756;2023-03-26T00:39:18;98585.89;;;22.11;33.68
55022;BME280;68328;35.990;-86.756;2023-03-26T00:41:43;98589.91;;;21.98;31.48
55022;BME280;68328;35.990;-86.756;2023-03-26T00:44:08;98595.93;;;21.82;31.98
55022;BME280;68328;35.990;-86.756;2023-03-26T00:46:33;98593.47;;;21.73;31.71
55022;BME280;68328;35.990;-86.756;2023-03-26T00:48:59;98596.58;;;21.76;32.13
55022;BME280;68328;35.990;-86.756;2023-03-26T00:51:25;98600.47;;;21.64;33.84
55022;BME280;68328;35.990;-86.756;2023-03-26T00:53:50;98605.55;;;21.75;33.64
55022;BME280;68328;35.990;-86.756;2023-03-26T00:56:14;98605.73;;;21.68;32.23
55022;BME280;68328;35.990;-86.756;2023-03-26T00:58:40;98607.24;;;21.26;34.31
55022;BME280;68328;35.990;-86.756;2023-03-26T01:01:08;98609.72;;;21.18;33.29
55022;BME280;68328;35.990;-86.756;2023-03-26T01:03:34;98614.17;;;21.17;33.69
55022;BME280;68328;35.990;-86.756;2023-03-26T01:05:58;98613.96;;;21.44;33.60
55022;BME280;68328;35.990;-86.756;2023-03-26T01:08:27;98615.79;;;21.06;32.54
55022;BME280;68328;35.990;-86.756;2023-03-26T01:10:46;98620.64;;;21.19;33.89
55022;BME280;68328;35.990;-86.756;2023-03-26T01:13:11;98619.31;;;21.32;35.13
55022;BME280;68328;35.990;-86.756;2023-03-26T01:15:38;98624.63;;;20.69;34.53
55022;BME280;68328;35.990;-86.756;2023-03-26T01:18:03;98629.67;;;20.82;33.26
55022;BME280;68328;35.990;-86.756;2023-03-26T01:20:27;98632.85;;;20.71;34.03
55022;BME280;68328;35.990;-86.756;2023-03-26T01:22:58;98636.61;;;20.91;33.55
55022;BME280;68328;35.990;-86.756;2023-03-26T01:25:18;98640.78;;;20.61;33.17
55022;BME280;68328;35.990;-86.756;2023-03-26T01:27:47;98642.22;;;20.34;32.13
55022;BME280;68328;35.990;-86.756;2023-03-26T01:30:14;98647.80;;;20.22;34.13
55022;BME280;68328;35.990;-86.756;2023-03-26T01:32:44;98653.01;;;20.46;34.27
55022;BME280;68328;35.990;-86.756;2023-03-26T01:35:13;98653.55;;;20.19;35.22
55022;BME280;68328;35.990;-86.756;2023-03-26T01:37:30;98653.09;;;20.11;36.20
55022;BME280;68328;35.990;-86.756;2023-03-26T01:39:52;98659.12;;;20.01;33.88
55022;BME280;68328;35.990;-86.756;2023-03-26T01:42:21;98660.98;;;20.23;33.56
55022;BME280;68328;35.990;-86.756;2023-03-26T01:44:44;98664.57;;;20.23;34.03
55022;BME280;68328;35.990;-86.756;2023-03-26T01:47:06;98667.74;;;20.08;33.61
55022;BME280;68328;35.990;-86.756;2023-03-26T01:49:31;98668.65;;;20.00;34.24
55022;BME280;68328;35.990;-86.756;2023-03-26T01:51:57;98668.41;;;19.86;34.69
55022;BME280;68328;35.990;-86.756;2023-03-26T01:54:23;98668.19;;;19.69;37.19
55022;BME280;68328;35.990;-86.756;2023-03-26T01:56:56;98672.94;;;19.79;35.61
55022;BME280;68328;35.990;-86.756;2023-03-26T02:01:43;98684.58;;;19.28;34.25
55022;BME280;68328;35.990;-86.756;2023-03-26T02:04:09;98688.75;;;19.05;34.00
55022;BME280;68328;35.990;-86.756;2023-03-26T02:06:34;98691.97;;;19.53;36.54
55022;BME280;68328;35.990;-86.756;2023-03-26T02:08:58;98695.42;;;19.13;35.68
55022;BME280;68328;35.990;-86.756;2023-03-26T02:11:19;98699.96;;;19.27;36.11
55022;BME280;68328;35.990;-86.756;2023-03-26T02:13:45;98701.42;;;19.26;37.20
55022;BME280;68328;35.990;-86.756;2023-03-26T02:16:14;98705.44;;;18.92;34.60
55022;BME280;68328;35.990;-86.756;2023-03-26T02:18:35;98707.09;;;19.10;35.38
55022;BME280;68328;35.990;-86.756;2023-03-26T02:21:00;98709.40;;;19.08;37.43
55022;BME280;68328;35.990;-86.756;2023-03-26T02:23:26;98714.32;;;19.05;37.76
55022;BME280;68328;35.990;-86.756;2023-03-26T02:25:51;98719.45;;;19.02;36.44
55022;BME280;68328;35.990;-86.756;2023-03-26T02:28:16;98725.90;;;18.76;36.82
55022;BME280;68328;35.990;-86.756;2023-03-26T02:30:41;98731.36;;;18.88;36.99
55022;BME280;68328;35.990;-86.756;2023-03-26T02:33:06;98734.66;;;18.74;37.36
55022;BME280;68328;35.990;-86.756;2023-03-26T02:35:32;98738.66;;;18.72;37.21
55022;BME280;68328;35.990;-86.756;2023-03-26T02:37:57;98741.38;;;18.60;36.66
55022;BME280;68328;35.990;-86.756;2023-03-26T02:40:23;98745.96;;;18.79;37.11
55022;BME280;68328;35.990;-86.756;2023-03-26T02:42:48;98748.18;;;18.61;36.87
55022;BME280;68328;35.990;-86.756;2023-03-26T02:45:14;98752.83;;;18.30;36.26
55022;BME280;68328;35.990;-86.756;2023-03-26T02:47:38;98753.91;;;18.79;37.84
55022;BME280;68328;35.990;-86.756;2023-03-26T02:50:04;98754.74;;;18.26;37.83
55022;BME280;68328;35.990;-86.756;2023-03-26T02:52:29;98759.65;;;18.62;36.53
55022;BME280;68328;35.990;-86.756;2023-03-26T02:54:54;98764.90;;;18.52;37.68
55022;BME280;68328;35.990;-86.756;2023-03-26T02:57:19;98767.12;;;18.50;38.19
55022;BME280;68328;35.990;-86.756;2023-03-26T02:59:45;98764.06;;;18.15;38.18
55022;BME280;68328;35.990;-86.756;2023-03-26T03:02:10;98764.05;;;18.29;39.34
55022;BME280;68328;35.990;-86.756;2023-03-26T03:04:35;98763.20;;;18.25;38.02
55022;BME280;68328;35.990;-86.756;2023-03-26T03:07:01;98762.99;;;18.04;38.34
55022;BME280;68328;35.990;-86.756;2023-03-26T03:09:26;98766.07;;;18.15;37.60
55022;BME280;68328;35.990;-86.756;2023-03-26T03:11:53;98767.34;;;18.12;39.43
55022;BME280;68328;35.990;-86.756;2023-03-26T03:14:17;98767.63;;;17.79;39.04
55022;BME280;68328;35.990;-86.756;2023-03-26T03:16:42;98764.97;;;17.89;38.21
55022;BME280;68328;35.990;-86.756;2023-03-26T03:19:07;98768.09;;;17.67;37.96
55022;BME280;68328;35.990;-86.756;2023-03-26T03:21:34;98773.85;;;17.56;38.83
55022;BME280;68328;35.990;-86.756;2023-03-26T03:23:59;98772.32;;;17.63;37.81
55022;BME280;68328;35.990;-86.756;2023-03-26T03:26:24;98774.74;;;17.54;38.05
55022;BME280;68328;35.990;-86.756;2023-03-26T03:28:49;98774.78;;;17.44;38.51
55022;BME280;68328;35.990;-86.756;2023-03-26T03:31:14;98774.98;;;17.44;38.11
55022;BME280;68328;35.990;-86.756;2023-03-26T03:33:40;98778.80;;;17.35;38.40
55022;BME280;68328;35.990;-86.756;2023-03-26T03:36:05;98776.34;;;17.27;37.90
55022;BME280;68328;35.990;-86.756;2023-03-26T03:38:30;98775.05;;;17.22;37.75
55022;BME280;68328;35.990;-86.756;2023-03-26T03:40:56;98772.29;;;17.15;38.64
55022;BME280;68328;35.990;-86.756;2023-03-26T03:43:20;98775.28;;;17.49;38.53
55022;BME280;68328;35.990;-86.756;2023-03-26T03:45:45;98779.52;;;17.17;38.20
55022;BME280;68328;35.990;-86.756;2023-03-26T03:48:11;98775.86;;;17.40;38.26
55022;BME280;68328;35.990;-86.756;2023-03-26T03:50:36;98777.83;;;17.27;38.88
55022;BME280;68328;35.990;-86.756;2023-03-26T03:53:03;98779.75;;;17.26;40.52
55022;BME280;68328;35.990;-86.756;2023-03-26T03:55:27;98781.16;;;17.06;40.24
55022;BME280;68328;35.990;-86.756;2023-03-26T03:57:53;98790.76;;;16.96;38.94
55022;BME280;68328;35.990;-86.756;2023-03-26T04:00:18;98793.53;;;16.80;40.47
55022;BME280;68328;35.990;-86.756;2023-03-26T04:02:43;98796.53;;;17.11;38.29
55022;BME280;68328;35.990;-86.756;2023-03-26T04:05:09;98797.92;;;16.93;38.52
55022;BME280;68328;35.990;-86.756;2023-03-26T04:07:34;98797.69;;;17.09;39.07
55022;BME280;68328;35.990;-86.756;2023-03-26T04:10:00;98799.38;;;16.88;40.21
55022;BME280;68328;35.990;-86.756;2023-03-26T04:12:25;98802.11;;;16.77;39.98
55022;BME280;68328;35.990;-86.756;2023-03-26T04:14:49;98804.76;;;16.55;40.90
55022;BME280;68328;35.990;-86.756;2023-03-26T04:17:15;98805.03;;;16.56;39.78
55022;BME280;68328;35.990;-86.756;2023-03-26T04:19:40;98806.21;;;16.50;40.32
55022;BME280;68328;35.990;-86.756;2023-03-26T04:22:06;98803.94;;;16.70;40.38
55022;BME280;68328;35.990;-86.756;2023-03-26T04:24:32;98807.26;;;16.35;39.27
55022;BME280;68328;35.990;-86.756;2023-03-26T04:26:57;98805.40;;;16.28;40.56
55022;BME280;68328;35.990;-86.756;2023-03-26T04:29:22;98812.40;;;16.26;39.76
55022;BME280;68328;35.990;-86.756;2023-03-26T04:31:47;98811.22;;;16.32;40.81
55022;BME280;68328;35.990;-86.756;2023-03-26T04:34:19;98807.89;;;16.24;39.57
55022;BME280;68328;35.990;-86.756;2023-03-26T04:36:38;98809.76;;;16.14;40.15
55022;BME280;68328;35.990;-86.756;2023-03-26T04:39:04;98812.25;;;16.43;41.32
55022;BME280;68328;35.990;-86.756;2023-03-26T04:41:28;98816.12;;;16.17;40.10
55022;BME280;68328;35.990;-86.756;2023-03-26T04:43:54;98817.91;;;16.08;40.38
55022;BME280;68328;35.990;-86.756;2023-03-26T04:46:20;98819.63;;;15.90;39.57
55022;BME280;68328;35.990;-86.756;2023-03-26T04:48:46;98821.52;;;16.06;39.65
55022;BME280;68328;35.990;-86.756;2023-03-26T04:51:13;98825.25;;;16.16;41.80
55022;BME280;68328;35.990;-86.756;2023-03-26T04:53:36;98827.20;;;16.03;40.60
55022;BME280;68328;35.990;-86.756;2023-03-26T04:56:08;98830.45;;;16.11;40.95
55022;BME280;68328;35.990;-86.756;2023-03-26T04:58:27;98834.83;;;16.25;39.44
55022;BME280;68328;35.990;-86.756;2023-03-26T05:00:52;98833.20;;;16.16;41.57
55022;BME280;68328;35.990;-86.756;2023-03-26T05:03:18;98841.00;;;16.05;40.08
55022;BME280;68328;35.990;-86.756;2023-03-26T05:05:44;98839.33;;;16.07;41.66
55022;BME280;68328;35.990;-86.756;2023-03-26T05:08:10;98841.06;;;15.75;40.70
55022;BME280;68328;35.990;-86.756;2023-03-26T05:10:35;98845.94;;;16.15;40.30
55022;BME280;68328;35.990;-86.756;2023-03-26T05:13:00;98845.86;;;15.82;40.80
55022;BME280;68328;35.990;-86.756;2023-03-26T05:15:25;98849.32;;;15.52;40.59
55022;BME280;68328;35.990;-86.756;2023-03-26T05:17:51;98847.59;;;15.86;40.99
55022;BME280;68328;35.990;-86.756;2023-03-26T05:20:19;98845.74;;;15.67;41.98
55022;BME280;68328;35.990;-86.756;2023-03-26T05:22:42;98854.21;;;15.82;40.67
55022;BME280;68328;35.990;-86.756;2023-03-26T05:25:08;98857.79;;;15.68;41.87
55022;BME280;68328;35.990;-86.756;2023-03-26T05:27:33;98858.21;;;15.71;41.55
55022;BME280;68328;35.990;-86.756;2023-03-26T05:30:00;98858.62;;;15.48;41.22
55022;BME280;68328;35.990;-86.756;2023-03-26T05:32:23;98861.11;;;15.33;41.20
55022;BME280;68328;35.990;-86.756;2023-03-26T05:34:48;98861.20;;;15.20;41.41
55022;BME280;68328;35.990;-86.756;2023-03-26T05:37:13;98858.67;;;15.37;41.82
55022;BME280;68328;35.990;-86.756;2023-03-26T05:39:40;98856.22;;;15.05;42.20
55022;BME280;68328;35.990;-86.756;2023-03-26T05:42:04;98852.80;;;15.33;44.11
55022;BME280;68328;35.990;-86.756;2023-03-26T05:44:29;98849.85;;;14.97;42.71
55022;BME280;68328;35.990;-86.756;2023-03-26T05:46:55;98852.54;;;14.95;42.74
55022;BME280;68328;35.990;-86.756;2023-03-26T05:49:22;98850.90;;;15.08;41.79
55022;BME280;68328;35.990;-86.756;2023-03-26T05:51:46;98847.75;;;14.75;42.74
55022;BME280;68328;35.990;-86.756;2023-03-26T05:54:11;98847.35;;;14.80;42.01
55022;BME280;68328;35.990;-86.756;2023-03-26T05:56:36;98848.80;;;14.63;42.89
55022;BME280;68328;35.990;-86.756;2023-03-26T05:59:01;98847.05;;;14.64;42.50
55022;BME280;68328;35.990;-86.756;2023-03-26T06:01:27;98849.97;;;14.74;41.93
55022;BME280;68328;35.990;-86.756;2023-03-26T06:03:53;98841.86;;;14.57;42.90
55022;BME280;68328;35.990;-86.756;2023-03-26T06:06:19;98845.51;;;14.65;42.52
55022;BME280;68328;35.990;-86.756;2023-03-26T06:08:44;98839.08;;;15.05;42.86
55022;BME280;68328;35.990;-86.756;2023-03-26T06:11:09;98831.34;;;14.79;43.08
55022;BME280;68328;35.990;-86.756;2023-03-26T06:13:33;98820.62;;;14.86;42.47
55022;BME280;68328;35.990;-86.756;2023-03-26T06:15:59;98798.76;;;14.22;44.32
55022;BME280;68328;35.990;-86.756;2023-03-26T06:18:24;98786.30;;;13.97;43.02
55022;BME280;68328;35.990;-86.756;2023-03-26T06:20:51;98779.44;;;14.35;43.28
55022;BME280;68328;35.990;-86.756;2023-03-26T06:23:15;98779.66;;;14.63;42.60
55022;BME280;68328;35.990;-86.756;2023-03-26T06:25:41;98778.49;;;14.42;42.83
55022;BME280;68328;35.990;-86.756;2023-03-26T06:28:06;98788.46;;;14.78;41.71
55022;BME280;68328;35.990;-86.756;2023-03-26T06:30:31;98798.02;;;14.50;42.12
55022;BME280;68328;35.990;-86.756;2023-03-26T06:32:57;98811.79;;;14.94;41.02
55022;BME280;68328;35.990;-86.756;2023-03-26T06:35:22;98811.28;;;14.96;41.02
55022;BME280;68328;35.990;-86.756;2023-03-26T06:37:47;98810.79;;;15.19;41.55
55022;BME280;68328;35.990;-86.756;2023-03-26T06:40:14;98818.26;;;14.94;40.65
55022;BME280;68328;35.990;-86.756;2023-03-26T06:42:39;98826.93;;;15.45;41.55
55022;BME280;68328;35.990;-86.756;2023-03-26T06:45:05;98826.59;;;15.11;40.96
55022;BME280;68328;35.990;-86.756;2023-03-26T06:47:29;98828.43;;;15.12;42.38
55022;BME280;68328;35.990;-86.756;2023-03-26T06:49:55;98822.87;;;15.11;41.34
55022;BME280;68328;35.990;-86.756;2023-03-26T06:52:20;98822.76;;;14.87;41.63
55022;BME280;68328;35.990;-86.756;2023-03-26T06:54:45;98823.62;;;14.76;41.16
55022;BME280;68328;35.990;-86.756;2023-03-26T06:57:11;98826.15;;;14.99;42.31
55022;BME280;68328;35.990;-86.756;2023-03-26T06:59:36;98830.71;;;15.15;41.87
55022;BME280;68328;35.990;-86.756;2023-03-26T07:02:02;98826.90;;;15.11;42.30
55022;BME280;68328;35.990;-86.756;2023-03-26T07:04:27;98827.78;;;15.06;42.05
55022;BME280;68328;35.990;-86.756;2023-03-26T07:06:52;98830.97;;;14.61;42.45
55022;BME280;68328;35.990;-86.756;2023-03-26T07:09:18;98834.22;;;14.96;43.20
55022;BME280;68328;35.990;-86.756;2023-03-26T07:11:43;98835.48;;;14.44;41.84
55022;BME280;68328;35.990;-86.756;2023-03-26T07:14:08;98838.12;;;14.66;41.47
55022;BME280;68328;35.990;-86.756;2023-03-26T07:16:34;98842.67;;;14.00;42.41
55022;BME280;68328;35.990;-86.756;2023-03-26T07:18:59;98840.90;;;14.36;43.31
55022;BME280;68328;35.990;-86.756;2023-03-26T07:21:25;98846.17;;;14.42;42.50
55022;BME280;68328;35.990;-86.756;2023-03-26T07:23:51;98848.87;;;14.49;43.52
55022;BME280;68328;35.990;-86.756;2023-03-26T07:26:25;98850.81;;;14.27;43.56
55022;BME280;68328;35.990;-86.756;2023-03-26T07:28:46;98850.18;;;14.16;43.71
55022;BME280;68328;35.990;-86.756;2023-03-26T07:31:16;98849.16;;;13.82;43.23
55022;BME280;68328;35.990;-86.756;2023-03-26T07:33:36;98847.59;;;14.14;42.57
55022;BME280;68328;35.990;-86.756;2023-03-26T07:36:05;98838.94;;;14.21;43.48
55022;BME280;68328;35.990;-86.756;2023-03-26T07:38:34;98839.56;;;14.31;43.56
55022;BME280;68328;35.990;-86.756;2023-03-26T07:40:55;98840.74;;;14.33;42.61
55022;BME280;68328;35.990;-86.756;2023-03-26T07:43:24;98845.94;;;14.28;42.14
55022;BME280;68328;35.990;-86.756;2023-03-26T07:45:41;98842.58;;;13.95;42.30
55022;BME280;68328;35.990;-86.756;2023-03-26T07:48:13;98837.39;;;13.78;43.45
55022;BME280;68328;35.990;-86.756;2023-03-26T07:50:28;98831.83;;;13.55;43.64
55022;BME280;68328;35.990;-86.756;2023-03-26T07:52:54;98829.01;;;13.73;44.81
55022;BME280;68328;35.990;-86.756;2023-03-26T07:55:20;98832.82;;;13.64;45.01
55022;BME280;68328;35.990;-86.756;2023-03-26T07:57:54;98831.76;;;13.62;45.07
55022;BME280;68328;35.990;-86.756;2023-03-26T08:00:16;98828.41;;;13.63;43.63
55022;BME280;68328;35.990;-86.756;2023-03-26T08:02:45;98823.02;;;13.75;43.33
55022;BME280;68328;35.990;-86.756;2023-03-26T08:05:13;98818.04;;;13.29;44.87
55022;BME280;68328;35.990;-86.756;2023-03-26T08:07:35;98815.98;;;13.20;45.00
55022;BME280;68328;35.990;-86.756;2023-03-26T08:10:02;98817.19;;;13.39;45.30
55022;BME280;68328;35.990;-86.756;2023-03-26T08:12:21;98817.36;;;13.51;46.03
55022;BME280;68328;35.990;-86.756;2023-03-26T08:14:48;98818.31;;;13.51;44.55
55022;BME280;68328;35.990;-86.756;2023-03-26T08:17:13;98822.01;;;13.32;45.01
55022;BME280;68328;35.990;-86.756;2023-03-26T08:19:42;98826.45;;;13.57;45.57
55022;BME280;68328;35.990;-86.756;2023-03-26T08:22:05;98831.50;;;13.52;43.91
55022;BME280;68328;35.990;-86.756;2023-03-26T08:24:30;98832.08;;;13.45;44.24
55022;BME280;68328;35.990;-86.756;2023-03-26T08:26:55;98824.46;;;13.41;44.48
55022;BME280;68328;35.990;-86.756;2023-03-26T08:29:21;98819.34;;;12.63;46.05
55022;BME280;68328;35.990;-86.756;2023-03-26T08:31:41;98820.39;;;13.26;46.89
55022;BME280;68328;35.990;-86.756;2023-03-26T08:34:05;98828.70;;;13.11;46.18
55022;BME280;68328;35.990;-86.756;2023-03-26T08:36:30;98839.73;;;13.23;45.35
55022;BME280;68328;35.990;-86.756;2023-03-26T08:38:55;98837.66;;;13.24;44.36
55022;BME280;68328;35.990;-86.756;2023-03-26T08:46:21;98791.61;;;12.01;46.10
55022;BME280;68328;35.990;-86.756;2023-03-26T08:55:55;98832.04;;;11.88;47.31
55022;BME280;68328;35.990;-86.756;2023-03-26T09:03:16;98825.89;;;12.43;46.41
55022;BME280;68328;35.990;-86.756;2023-03-26T09:05:45;98834.85;;;12.76;45.64
55022;BME280;68328;35.990;-86.756;2023-03-26T09:27:35;98824.28;;;12.56;46.70
55022;BME280;68328;35.990;-86.756;2023-03-26T09:32:28;98815.10;;;12.37;45.77
55022;BME280;68328;35.990;-86.756;2023-03-26T09:37:16;98814.91;;;12.61;45.22
55022;BME280;68328;35.990;-86.756;2023-03-26T09:39:35;98813.79;;;12.86;45.14
55022;BME280;68328;35.990;-86.756;2023-03-26T09:42:07;98813.27;;;12.66;45.99
55022;BME280;68328;35.990;-86.756;2023-03-26T09:46:56;98812.47;;;12.63;45.50
55022;BME280;68328;35.990;-86.756;2023-03-26T09:49:31;98812.35;;;12.64;46.21
55022;BME280;68328;35.990;-86.756;2023-03-26T09:51:48;98809.62;;;12.66;45.92
55022;BME280;68328;35.990;-86.756;2023-03-26T09:56:36;98808.55;;;12.98;45.05
55022;BME280;68328;35.990;-86.756;2023-03-26T09:59:05;98807.89;;;12.84;44.57
55022;BME280;68328;35.990;-86.756;2023-03-26T10:01:26;98811.33;;;12.50;44.66
55022;BME280;68328;35.990;-86.756;2023-03-26T10:03:54;98820.12;;;12.67;45.48
55022;BME280;68328;35.990;-86.756;2023-03-26T10:08:46;98831.17;;;12.38;45.60
55022;BME280;68328;35.990;-86.756;2023-03-26T10:11:06;98833.79;;;12.96;45.99
55022;BME280;68328;35.990;-86.756;2023-03-26T10:13:32;98835.82;;;12.66;45.78
55022;BME280;68328;35.990;-86.756;2023-03-26T10:18:20;98835.36;;;12.65;46.03
55022;BME280;68328;35.990;-86.756;2023-03-26T10:20:52;98833.40;;;12.95;46.67
55022;BME280;68328;35.990;-86.756;2023-03-26T10:23:18;98836.33;;;12.75;45.78
55022;BME280;68328;35.990;-86.756;2023-03-26T10:25:42;98836.87;;;12.60;46.85
55022;BME280;68328;35.990;-86.756;2023-03-26T10:28:10;98841.37;;;12.84;45.54
55022;BME280;68328;35.990;-86.756;2023-03-26T10:30:36;98843.42;;;12.52;45.37
55022;BME280;68328;35.990;-86.756;2023-03-26T10:32:59;98844.39;;;12.51;44.91
55022;BME280;68328;35.990;-86.756;2023-03-26T10:35:20;98838.81;;;12.70;45.64
55022;BME280;68328;35.990;-86.756;2023-03-26T10:37:53;98837.03;;;12.41;45.72
55022;BME280;68328;35.990;-86.756;2023-03-26T10:40:10;98836.39;;;12.31;45.51
55022;BME280;68328;35.990;-86.756;2023-03-26T10:42:38;98840.64;;;12.58;45.87
55022;BME280;68328;35.990;-86.756;2023-03-26T10:47:30;98846.87;;;12.39;45.60
55022;BME280;68328;35.990;-86.756;2023-03-26T10:49:54;98852.29;;;12.37;45.72
55022;BME280;68328;35.990;-86.756;2023-03-26T10:52:12;98858.33;;;12.70;45.86
55022;BME280;68328;35.990;-86.756;2023-03-26T10:54:44;98857.58;;;12.19;45.92
55022;BME280;68328;35.990;-86.756;2023-03-26T10:57:03;98863.03;;;12.72;46.08
55022;BME280;68328;35.990;-86.756;2023-03-26T10:59:26;98864.66;;;12.40;45.19
55022;BME280;68328;35.990;-86.756;2023-03-26T11:02:00;98861.56;;;12.37;45.45
55022;BME280;68328;35.990;-86.756;2023-03-26T11:04:28;98859.80;;;12.25;46.18
55022;BME280;68328;35.990;-86.756;2023-03-26T11:06:49;98859.25;;;12.28;46.41
55022;BME280;68328;35.990;-86.756;2023-03-26T11:09:17;98862.78;;;12.40;46.71
55022;BME280;68328;35.990;-86.756;2023-03-26T11:11:39;98865.85;;;11.98;46.52
55022;BME280;68328;35.990;-86.756;2023-03-26T11:14:04;98867.09;;;12.52;46.86
55022;BME280;68328;35.990;-86.756;2023-03-26T11:16:29;98868.05;;;12.48;46.03
55022;BME280;68328;35.990;-86.756;2023-03-26T11:18:54;98865.46;;;11.97;45.95
55022;BME280;68328;35.990;-86.756;2023-03-26T11:21:20;98863.22;;;12.16;45.86
55022;BME280;68328;35.990;-86.756;2023-03-26T11:23:47;98859.77;;;12.33;46.92
55022;BME280;68328;35.990;-86.756;2023-03-26T11:26:09;98854.23;;;12.12;45.85
55022;BME280;68328;35.990;-86.756;2023-03-26T11:31:03;98866.16;;;12.08;47.08
55022;BME280;68328;35.990;-86.756;2023-03-26T11:33:25;98872.70;;;12.35;46.42
55022;BME280;68328;35.990;-86.756;2023-03-26T11:35:48;98874.23;;;12.09;46.01
55022;BME280;68328;35.990;-86.756;2023-03-26T11:38:18;98872.57;;;12.27;46.46
55022;BME280;68328;35.990;-86.756;2023-03-26T11:40:40;98875.67;;;12.06;46.96
55022;BME280;68328;35.990;-86.756;2023-03-26T11:43:06;98878.17;;;12.31;46.94
55022;BME280;68328;35.990;-86.756;2023-03-26T11:45:30;98880.50;;;12.30;47.04
55022;BME280;68328;35.990;-86.756;2023-03-26T11:47:58;98881.36;;;12.18;46.18
55022;BME280;68328;35.990;-86.756;2023-03-26T11:50:22;98887.19;;;12.08;46.63
55022;BME280;68328;35.990;-86.756;2023-03-26T11:52:44;98887.74;;;12.14;46.77
55022;BME280;68328;35.990;-86.756;2023-03-26T11:55:11;98884.19;;;12.15;46.31
55022;BME280;68328;35.990;-86.756;2023-03-26T11:57:35;98885.25;;;12.22;47.12
55022;BME280;68328;35.990;-86.756;2023-03-26T12:00:03;98886.35;;;12.24;46.95
55022;BME280;68328;35.990;-86.756;2023-03-26T12:02:27;98888.76;;;12.33;46.35
55022;BME280;68328;35.990;-86.756;2023-03-26T12:04:52;98887.23;;;12.35;46.28
55022;BME280;68328;35.990;-86.756;2023-03-26T12:07:17;98890.47;;;11.95;47.47
55022;BME280;68328;35.990;-86.756;2023-03-26T12:09:49;98892.93;;;11.93;47.66
55022;BME280;68328;35.990;-86.756;2023-03-26T12:12:11;98888.66;;;12.17;46.73
55022;BME280;68328;35.990;-86.756;2023-03-26T12:14:33;98885.37;;;12.22;46.47
55022;BME280;68328;35.990;-86.756;2023-03-26T12:17:00;98882.02;;;12.54;47.87
55022;BME280;68328;35.990;-86.756;2023-03-26T12:19:22;98880.34;;;12.38;46.79
55022;BME280;68328;35.990;-86.756;2023-03-26T12:21:50;98879.26;;;12.29;47.31
55022;BME280;68328;35.990;-86.756;2023-03-26T12:24:24;98884.07;;;12.47;46.86
55022;BME280;68328;35.990;-86.756;2023-03-26T12:26:40;98885.86;;;12.60;46.69
55022;BME280;68328;35.990;-86.756;2023-03-26T12:29:08;98886.93;;;12.32;47.51
55022;BME280;68328;35.990;-86.756;2023-03-26T12:31:29;98887.76;;;12.65;46.89
55022;BME280;68328;35.990;-86.756;2023-03-26T12:34:06;98885.99;;;12.76;47.27
55022;BME280;68328;35.990;-86.756;2023-03-26T12:36:22;98883.40;;;12.96;47.19
55022;BME280;68328;35.990;-86.756;2023-03-26T12:38:46;98880.58;;;12.91;47.00
55022;BME280;68328;35.990;-86.756;2023-03-26T12:41:13;98881.81;;;13.08;46.92
55022;BME280;68328;35.990;-86.756;2023-03-26T12:43:40;98880.25;;;13.01;48.11
55022;BME280;68328;35.990;-86.756;2023-03-26T12:46:09;98880.38;;;13.40;47.13
55022;BME280;68328;35.990;-86.756;2023-03-26T12:48:27;98880.01;;;13.58;46.91
55022;BME280;68328;35.990;-86.756;2023-03-26T12:53:32;98889.86;;;13.60;46.76
55022;BME280;68328;35.990;-86.756;2023-03-26T12:55:51;98892.87;;;13.60;46.86
55022;BME280;68328;35.990;-86.756;2023-03-26T12:58:27;98894.04;;;13.74;46.62
55022;BME280;68328;35.990;-86.756;2023-03-26T13:00:45;98899.52;;;13.69;45.95
55022;BME280;68328;35.990;-86.756;2023-03-26T13:03:15;98896.74;;;13.90;45.43
55022;BME280;68328;35.990;-86.756;2023-03-26T13:05:39;98896.52;;;14.08;45.11
55022;BME280;68328;35.990;-86.756;2023-03-26T13:07:58;98895.81;;;14.37;44.87
55022;BME280;68328;35.990;-86.756;2023-03-26T13:10:27;98899.03;;;14.48;44.90
55022;BME280;68328;35.990;-86.756;2023-03-26T13:12:45;98900.40;;;14.61;44.81
55022;BME280;68328;35.990;-86.756;2023-03-26T13:15:16;98910.40;;;14.63;44.57
55022;BME280;68328;35.990;-86.756;2023-03-26T13:17:37;98916.40;;;14.74;43.63
55022;BME280;68328;35.990;-86.756;2023-03-26T13:20:03;98923.09;;;14.82;43.82
55022;BME280;68328;35.990;-86.756;2023-03-26T13:22:27;98928.36;;;14.95;43.74
55022;BME280;68328;35.990;-86.756;2023-03-26T13:24:54;98934.11;;;14.93;43.39
55022;BME280;68328;35.990;-86.756;2023-03-26T13:27:27;98937.60;;;14.89;43.28
55022;BME280;68328;35.990;-86.756;2023-03-26T13:29:44;98945.38;;;15.16;43.32